createdAt,value
2023-05-03T00:00:12.441Z,8.53
2023-05-03T00:02:40.185Z,10.50
2023-05-03T00:05:13.006Z,9.77
2023-05-03T00:07:43.845Z,6.10
2023-05-03T00:10:15.903Z,8.23
2023-05-03T00:12:43.837Z,6.73
2023-05-03T00:15:11.137Z,10.90
2023-05-03T00:17:38.121Z,8.77
2023-05-03T00:20:05.810Z,8.30
2023-05-03T00:22:32.669Z,12.20
2023-05-03T00:25:00.164Z,8.83
2023-05-03T00:27:27.029Z,11.17
2023-05-03T00:29:53.726Z,7.00
2023-05-03T00:32:23.312Z,10.77
2023-05-03T00:34:57.178Z,9.13
2023-05-03T00:37:24.978Z,8.13
2023-05-03T00:39:52.403Z,9.80
2023-05-03T00:42:19.397Z,6.37
2023-05-03T00:44:46.085Z,8.63
2023-05-03T00:47:13.169Z,5.37
2023-05-03T00:49:40.152Z,10.33
2023-05-03T00:52:06.971Z,5.57
2023-05-03T00:54:35.377Z,9.80
2023-05-03T00:57:04.562Z,14.67
2023-05-03T00:59:32.922Z,5.47
2023-05-03T01:02:00.008Z,3.83
2023-05-03T01:04:27.043Z,7.83
2023-05-03T01:07:23.594Z,5.20
2023-05-03T01:10:29.534Z,5.80
2023-05-03T01:13:16.185Z,6.43
2023-05-03T01:16:01.270Z,9.20
2023-05-03T01:18:34.535Z,4.80
2023-05-03T01:21:02.617Z,5.10
2023-05-03T01:23:30.250Z,11.83
2023-05-03T01:25:57.521Z,7.80
2023-05-03T01:28:24.485Z,10.73
2023-05-03T01:30:53.448Z,7.00
2023-05-03T01:33:20.097Z,8.37
2023-05-03T01:36:12.079Z,7.57
2023-05-03T01:38:39.652Z,6.57
2023-05-03T01:41:11.530Z,8.03
2023-05-03T01:43:39.142Z,6.23
2023-05-03T01:46:06.000Z,6.37
2023-05-03T01:48:32.792Z,7.80
2023-05-03T01:50:59.718Z,4.80
2023-05-03T01:53:26.453Z,8.00
2023-05-03T01:55:53.122Z,7.77
2023-05-03T01:58:19.797Z,8.27
2023-05-03T02:00:46.872Z,8.87
2023-05-03T02:03:13.713Z,11.33
2023-05-03T02:05:41.444Z,7.10
2023-05-03T02:08:08.395Z,6.43
2023-05-03T02:10:35.079Z,7.77
2023-05-03T02:13:01.774Z,5.77
2023-05-03T02:15:28.436Z,8.30
2023-05-03T02:17:55.645Z,7.63
2023-05-03T02:20:22.458Z,7.60
2023-05-03T02:22:49.119Z,9.67
2023-05-03T02:25:15.794Z,7.00
2023-05-03T02:27:42.481Z,6.73
2023-05-03T02:30:09.524Z,6.27
2023-05-03T02:32:36.381Z,7.23
2023-05-03T02:35:03.403Z,8.40
2023-05-03T02:37:30.093Z,5.73
2023-05-03T02:39:56.852Z,8.90
2023-05-03T02:42:24.025Z,7.00
2023-05-03T02:44:50.695Z,8.83
2023-05-03T02:47:17.358Z,7.33
2023-05-03T02:49:44.055Z,8.83
2023-05-03T02:52:10.885Z,6.93
2023-05-03T02:54:37.525Z,4.80
2023-05-03T02:57:04.626Z,6.47
2023-05-03T02:59:32.858Z,8.73
2023-05-03T03:01:59.728Z,8.63
2023-05-03T03:04:26.462Z,9.67
2023-05-03T03:06:56.634Z,7.77
2023-05-03T03:09:23.328Z,10.10
2023-05-03T03:11:52.751Z,7.33
2023-05-03T03:14:19.477Z,8.33
2023-05-03T03:16:46.506Z,5.37
2023-05-03T03:19:13.811Z,11.20
2023-05-03T03:21:40.724Z,8.17
2023-05-03T03:24:07.520Z,7.67
2023-05-03T03:26:34.193Z,7.53
2023-05-03T03:29:01.383Z,7.27
2023-05-03T03:31:28.124Z,6.63
2023-05-03T03:33:54.819Z,7.67
2023-05-03T03:36:21.507Z,7.77
2023-05-03T03:38:48.192Z,9.07
2023-05-03T03:41:15.082Z,8.47
2023-05-03T03:43:41.752Z,6.90
2023-05-03T03:46:08.415Z,7.83
2023-05-03T03:48:35.162Z,10.37
2023-05-03T03:51:01.797Z,7.67
2023-05-03T03:53:28.749Z,8.73
2023-05-03T03:55:56.549Z,6.97
2023-05-03T03:58:23.257Z,10.43
2023-05-03T04:00:50.529Z,12.50
2023-05-03T04:03:17.764Z,8.50
2023-05-03T04:05:44.571Z,6.20
2023-05-03T04:08:11.339Z,9.17
2023-05-03T04:10:38.073Z,6.00
2023-05-03T04:13:04.751Z,7.33
2023-05-03T04:15:31.460Z,7.87
2023-05-03T04:17:58.420Z,8.77
2023-05-03T04:20:25.141Z,12.90
2023-05-03T04:22:51.788Z,8.47
2023-05-03T04:25:18.594Z,8.30
2023-05-03T04:27:45.985Z,7.40
2023-05-03T04:30:15.501Z,11.17
2023-05-03T04:32:42.883Z,8.77
2023-05-03T04:35:12.475Z,9.20
2023-05-03T04:37:41.870Z,6.63
2023-05-03T04:40:10.546Z,9.67
2023-05-03T04:42:37.296Z,8.73
2023-05-03T04:45:06.728Z,10.90
2023-05-03T04:47:34.093Z,13.10
2023-05-03T04:50:02.239Z,7.80
2023-05-03T04:52:29.245Z,11.90
2023-05-03T04:54:56.166Z,7.83
2023-05-03T04:57:22.828Z,7.27
2023-05-03T04:59:49.968Z,7.40
2023-05-03T05:02:16.635Z,6.27
2023-05-03T05:04:44.275Z,10.00
2023-05-03T05:07:12.025Z,12.03
2023-05-03T05:09:40.637Z,13.03
2023-05-03T05:12:07.664Z,9.90
2023-05-03T05:14:34.380Z,6.37
2023-05-03T05:17:01.136Z,8.97
2023-05-03T05:19:27.885Z,12.37
2023-05-03T05:21:54.641Z,12.40
2023-05-03T05:24:21.410Z,8.30
2023-05-03T05:26:48.614Z,10.03
2023-05-03T05:29:15.300Z,7.53
2023-05-03T05:31:41.988Z,8.30
2023-05-03T05:34:08.701Z,14.23
2023-05-03T05:36:35.420Z,8.90
2023-05-03T05:39:02.183Z,12.17
2023-05-03T05:41:28.840Z,9.40
2023-05-03T05:43:55.604Z,8.07
2023-05-03T05:46:22.291Z,11.83
2023-05-03T05:48:51.154Z,12.03
2023-05-03T05:51:17.922Z,11.30
2023-05-03T05:53:44.655Z,7.83
2023-05-03T05:56:11.662Z,7.97
2023-05-03T05:58:38.771Z,6.77
2023-05-03T06:01:05.725Z,9.07
2023-05-03T06:03:33.916Z,11.57
2023-05-03T06:06:01.036Z,8.77
2023-05-03T06:08:27.954Z,8.63
2023-05-03T06:10:54.738Z,7.27
2023-05-03T06:13:22.364Z,10.07
2023-05-03T06:15:49.090Z,7.93
2023-05-03T06:18:15.983Z,5.40
2023-05-03T06:20:49.182Z,7.30
2023-05-03T06:23:15.861Z,5.05
2023-05-03T06:25:45.665Z,6.95
2023-05-03T06:28:12.489Z,7.47
2023-05-03T06:30:39.175Z,10.23
2023-05-03T06:33:05.939Z,7.20
2023-05-03T06:35:32.655Z,7.05
2023-05-03T06:37:59.308Z,6.68
2023-05-03T06:40:27.197Z,2.80
2023-05-03T06:42:53.971Z,5.68
2023-05-03T06:45:20.650Z,5.13
2023-05-03T06:47:47.357Z,5.15
2023-05-03T06:50:14.184Z,4.82
2023-05-03T06:52:41.369Z,6.82
2023-05-03T06:55:08.597Z,5.60
2023-05-03T06:57:35.273Z,6.32
2023-05-03T07:00:02.262Z,4.18
2023-05-03T07:02:29.310Z,7.68
2023-05-03T07:04:56.096Z,6.57
2023-05-03T07:07:22.762Z,6.18
2023-05-03T07:09:49.761Z,6.75
2023-05-03T07:12:16.857Z,7.18
2023-05-03T07:14:43.710Z,2.72
2023-05-03T07:17:10.461Z,3.53
2023-05-03T07:19:37.573Z,5.22
2023-05-03T07:22:04.456Z,5.03
2023-05-03T07:24:31.170Z,2.70
2023-05-03T07:26:58.310Z,8.30
2023-05-03T07:29:25.065Z,16.65
2023-05-03T07:31:53.481Z,4.05
2023-05-03T07:34:20.830Z,4.22
2023-05-03T07:36:47.503Z,6.57
2023-05-03T07:39:14.179Z,3.03
2023-05-03T07:41:41.088Z,4.75
2023-05-03T07:44:08.150Z,4.00
2023-05-03T07:46:35.526Z,4.35
2023-05-03T07:49:06.415Z,4.72
2023-05-03T07:51:37.367Z,4.53
2023-05-03T07:54:04.696Z,3.33
2023-05-03T07:56:31.676Z,5.68
2023-05-03T07:59:08.525Z,2.97
2023-05-03T08:01:36.506Z,3.13
2023-05-03T08:04:05.464Z,3.17
2023-05-03T08:06:33.285Z,5.30
2023-05-03T08:09:00.706Z,3.70
2023-05-03T08:11:28.943Z,4.68
2023-05-03T08:13:56.000Z,6.47
2023-05-03T08:16:22.846Z,4.32
2023-05-03T08:18:49.731Z,6.95
2023-05-03T08:21:17.548Z,2.33
2023-05-03T08:23:45.009Z,5.05
2023-05-03T08:26:14.068Z,3.17
2023-05-03T08:28:40.990Z,2.30
2023-05-03T08:31:07.927Z,7.55
2023-05-03T08:33:34.766Z,4.82
2023-05-03T08:36:01.722Z,4.10
2023-05-03T08:38:28.993Z,4.18
2023-05-03T08:40:59.490Z,6.68
2023-05-03T08:43:28.830Z,5.60
2023-05-03T08:45:55.717Z,5.35
2023-05-03T08:48:23.365Z,3.55
2023-05-03T08:50:52.763Z,5.45
2023-05-03T08:53:19.620Z,9.00
2023-05-03T08:55:46.301Z,8.25
2023-05-03T08:58:13.658Z,3.75
2023-05-03T09:00:44.839Z,3.67
2023-05-03T09:03:12.330Z,5.32
2023-05-03T09:05:40.547Z,4.80
2023-05-03T09:08:12.574Z,3.60
2023-05-03T09:10:41.724Z,4.70
2023-05-03T09:13:10.864Z,4.72
2023-05-03T09:15:37.879Z,5.20
2023-05-03T09:18:09.343Z,3.20
2023-05-03T09:20:37.706Z,6.65
2023-05-03T09:23:04.516Z,3.50
2023-05-03T09:25:49.184Z,6.80
2023-05-03T09:28:17.461Z,6.68
2023-05-03T09:30:45.152Z,4.50
2023-05-03T09:33:12.507Z,5.07
2023-05-03T09:35:55.789Z,5.50
2023-05-03T09:38:30.436Z,6.13
2023-05-03T09:40:57.527Z,4.65
2023-05-03T09:43:24.412Z,4.95
2023-05-03T09:45:51.469Z,7.20
2023-05-03T09:48:22.732Z,6.53
2023-05-03T09:50:49.489Z,7.38
2023-05-03T09:53:18.767Z,6.65
2023-05-03T09:55:46.971Z,6.28
2023-05-03T09:58:15.255Z,5.90
2023-05-03T10:00:46.552Z,5.80
2023-05-03T10:03:22.175Z,6.88
2023-05-03T10:05:51.282Z,8.60
2023-05-03T10:08:24.939Z,8.07
2023-05-03T10:10:53.588Z,6.20
2023-05-03T10:13:24.365Z,5.10
2023-05-03T10:16:02.109Z,3.80
2023-05-03T10:18:31.300Z,3.92
2023-05-03T10:21:07.360Z,8.43
2023-05-03T10:23:34.048Z,4.38
2023-05-03T10:26:11.251Z,6.55
2023-05-03T10:28:37.926Z,4.88
2023-05-03T10:31:05.269Z,5.38
2023-05-03T10:33:35.272Z,5.65
2023-05-03T10:36:10.265Z,6.28
2023-05-03T10:38:38.005Z,5.05
2023-05-03T10:41:06.897Z,5.40
2023-05-03T10:43:33.617Z,3.53
2023-05-03T10:46:05.538Z,6.35
2023-05-03T10:48:38.572Z,3.83
2023-05-03T10:51:33.643Z,3.78
2023-05-03T10:54:00.552Z,5.28
2023-05-03T10:56:27.337Z,4.50
2023-05-03T10:58:58.803Z,5.88
2023-05-03T11:01:27.849Z,6.55
2023-05-03T11:04:17.463Z,8.40
2023-05-03T11:06:46.354Z,8.90
2023-05-03T11:09:14.839Z,5.50
2023-05-03T11:11:43.417Z,5.55
2023-05-03T11:14:11.586Z,5.60
2023-05-03T11:16:47.320Z,6.80
2023-05-03T11:19:15.793Z,7.15
2023-05-03T11:21:43.586Z,5.35
2023-05-03T11:24:10.509Z,6.50
2023-05-03T11:26:38.472Z,6.78
2023-05-03T11:29:05.933Z,6.93
2023-05-03T11:31:33.008Z,5.00
2023-05-03T11:33:59.949Z,7.10
2023-05-03T11:36:27.976Z,6.50
2023-05-03T11:38:55.026Z,6.15
2023-05-03T11:41:22.048Z,5.40
2023-05-03T11:44:00.677Z,10.27
2023-05-03T11:46:37.774Z,8.38
2023-05-03T11:49:04.748Z,6.22
2023-05-03T11:51:31.911Z,6.32
2023-05-03T11:54:12.922Z,6.05
2023-05-03T11:56:48.753Z,7.15
2023-05-03T11:59:17.381Z,5.93
2023-05-03T12:01:44.229Z,4.45
2023-05-03T12:04:12.934Z,8.82
2023-05-03T12:06:42.433Z,5.72
2023-05-03T12:09:15.656Z,6.07
2023-05-03T12:11:44.673Z,9.52
2023-05-03T12:14:12.636Z,4.35
2023-05-03T12:16:56.483Z,4.38
2023-05-03T12:19:31.129Z,7.50
2023-05-03T12:24:33.537Z,5.43
2023-05-03T12:27:02.790Z,6.18
2023-05-03T12:29:34.421Z,5.97
2023-05-03T12:32:03.828Z,5.15
2023-05-03T12:34:35.669Z,4.53
2023-05-03T12:37:05.366Z,4.85
2023-05-03T12:39:33.423Z,8.15
2023-05-03T12:44:34.907Z,4.47
2023-05-03T12:47:03.395Z,4.45
2023-05-03T12:49:31.023Z,9.00
2023-05-03T12:54:33.450Z,6.10
2023-05-03T12:57:08.962Z,6.65
2023-05-03T12:59:41.679Z,4.80
2023-05-03T13:05:10.874Z,6.32
2023-05-03T13:07:41.539Z,5.05
2023-05-03T13:12:46.073Z,5.20
2023-05-03T13:15:13.796Z,6.53
2023-05-03T13:17:40.751Z,4.80
2023-05-03T13:20:08.257Z,6.53
2023-05-03T13:22:35.110Z,9.82
2023-05-03T13:25:03.406Z,7.07
2023-05-03T13:27:30.934Z,7.53
2023-05-03T13:29:59.959Z,5.60
2023-05-03T13:32:26.864Z,5.47
2023-05-03T13:34:53.736Z,5.47
2023-05-03T13:37:20.602Z,6.47
2023-05-03T13:39:47.503Z,3.65
2023-05-03T13:42:14.394Z,6.63
2023-05-03T13:44:41.181Z,4.50
2023-05-03T13:47:08.023Z,9.43
2023-05-03T13:49:35.365Z,6.15
2023-05-03T13:52:02.182Z,5.30
2023-05-03T13:54:30.119Z,8.75
2023-05-03T13:56:58.317Z,6.50
2023-05-03T13:59:25.070Z,11.52
2023-05-03T14:01:51.892Z,9.65
2023-05-03T14:04:19.905Z,6.53
2023-05-03T14:06:46.924Z,7.90
2023-05-03T14:09:15.182Z,6.93
2023-05-03T14:11:42.022Z,7.75
2023-05-03T14:14:08.813Z,8.13
2023-05-03T14:16:41.356Z,4.63
2023-05-03T14:19:11.086Z,6.82
2023-05-03T14:21:38.421Z,5.53
2023-05-03T14:24:06.653Z,7.57
2023-05-03T14:26:34.271Z,5.72
2023-05-03T14:29:01.729Z,6.32
2023-05-03T14:31:28.552Z,5.07
2023-05-03T14:33:55.487Z,5.75
2023-05-03T14:36:22.991Z,5.15
2023-05-03T14:38:49.757Z,5.75
2023-05-03T14:41:16.709Z,4.93
2023-05-03T14:43:43.381Z,7.03
2023-05-03T14:46:11.383Z,6.97
2023-05-03T14:48:38.308Z,7.28
2023-05-03T14:51:05.598Z,6.25
2023-05-03T14:53:32.601Z,7.20
2023-05-03T14:55:59.623Z,6.95
2023-05-03T14:58:26.774Z,6.68
2023-05-03T15:00:53.722Z,9.98
2023-05-03T15:03:20.572Z,4.75
2023-05-03T15:05:49.418Z,9.05
2023-05-03T15:08:19.373Z,5.75
2023-05-03T15:10:47.815Z,6.88
2023-05-03T15:13:15.716Z,7.70
2023-05-03T15:15:46.110Z,6.13
2023-05-03T15:18:14.711Z,7.80
2023-05-03T15:20:41.559Z,7.30
2023-05-03T15:23:08.367Z,6.70
2023-05-03T15:25:35.663Z,9.30
2023-05-03T15:28:04.488Z,7.72
2023-05-03T15:30:32.251Z,7.10
2023-05-03T15:32:59.114Z,7.40
2023-05-03T15:35:26.001Z,5.55
2023-05-03T15:37:52.721Z,5.40
2023-05-03T15:40:20.644Z,6.80
2023-05-03T15:42:47.433Z,7.10
2023-05-03T15:45:15.520Z,8.57
2023-05-03T15:47:42.495Z,5.47
2023-05-03T15:50:09.715Z,6.40
2023-05-03T15:52:36.648Z,7.05
2023-05-03T15:55:03.495Z,9.25
2023-05-03T15:57:30.523Z,7.13
2023-05-03T15:59:57.414Z,7.43
2023-05-03T16:02:24.407Z,7.53
2023-05-03T16:04:51.269Z,32.63
2023-05-03T16:07:18.299Z,9.25
2023-05-03T16:09:46.194Z,5.45
2023-05-03T16:12:12.872Z,7.47
2023-05-03T16:14:39.981Z,7.22
2023-05-03T16:17:06.824Z,5.90
2023-05-03T16:19:33.747Z,8.45
2023-05-03T16:22:00.674Z,7.00
2023-05-03T16:24:28.437Z,4.85
2023-05-03T16:26:55.377Z,10.52
2023-05-03T16:29:22.119Z,6.20
2023-05-03T16:31:49.593Z,5.85
2023-05-03T16:34:16.782Z,9.10
2023-05-03T16:36:44.171Z,7.45
2023-05-03T16:39:14.776Z,5.68
2023-05-03T16:41:41.994Z,6.75
2023-05-03T16:44:08.949Z,6.10
2023-05-03T16:46:37.813Z,6.38
2023-05-03T16:49:05.196Z,6.30
2023-05-03T16:51:32.701Z,5.78
2023-05-03T16:54:00.622Z,5.35
2023-05-03T16:56:30.697Z,8.77
2023-05-03T16:58:58.981Z,6.53
2023-05-03T17:01:26.139Z,9.35
2023-05-03T17:03:53.338Z,6.68
2023-05-03T17:06:20.318Z,10.25
2023-05-03T17:08:47.134Z,8.88
2023-05-03T17:11:14.713Z,6.20
2023-05-03T17:13:41.965Z,5.40
2023-05-03T17:16:10.913Z,5.65
2023-05-03T17:18:40.301Z,5.65
2023-05-03T17:21:08.261Z,5.78
2023-05-03T17:23:37.898Z,7.35
2023-05-03T17:26:06.866Z,5.68
2023-05-03T17:28:33.722Z,7.68
2023-05-03T17:31:01.103Z,5.65
2023-05-03T17:33:28.001Z,5.72
2023-05-03T17:36:00.630Z,13.45
2023-05-03T17:38:27.358Z,10.75
2023-05-03T17:40:54.288Z,6.55
2023-05-03T17:43:21.518Z,8.07
2023-05-03T17:45:48.393Z,7.07
2023-05-03T17:48:15.130Z,9.38
2023-05-03T17:50:43.203Z,8.13
2023-05-03T17:53:10.088Z,9.80
2023-05-03T17:55:40.621Z,8.40
2023-05-03T17:58:09.383Z,7.30
2023-05-03T18:00:36.141Z,9.97
2023-05-03T18:03:03.710Z,8.43
2023-05-03T18:05:36.874Z,5.93
2023-05-03T18:08:04.034Z,6.07
2023-05-03T18:10:30.973Z,7.73
2023-05-03T18:12:57.921Z,9.17
2023-05-03T18:15:24.713Z,7.97
2023-05-03T18:17:51.734Z,7.87
2023-05-03T18:20:18.669Z,9.57
2023-05-03T18:22:45.353Z,8.97
2023-05-03T18:25:12.500Z,7.07
2023-05-03T18:27:39.270Z,10.90
2023-05-03T18:30:07.029Z,8.13
2023-05-03T18:32:34.789Z,8.07
2023-05-03T18:35:02.589Z,9.20
2023-05-03T18:37:29.529Z,9.30
2023-05-03T18:39:56.294Z,10.93
2023-05-03T18:42:23.210Z,8.60
2023-05-03T18:44:50.072Z,11.67
2023-05-03T18:47:20.736Z,9.03
2023-05-03T18:49:50.532Z,7.27
2023-05-03T18:52:17.363Z,9.33
2023-05-03T18:54:44.042Z,11.47
2023-05-03T18:57:11.917Z,7.73
2023-05-03T18:59:49.136Z,7.47
2023-05-03T19:02:35.375Z,9.67
2023-05-03T19:05:02.321Z,9.90
2023-05-03T19:07:29.438Z,10.77
2023-05-03T19:09:57.425Z,11.97
2023-05-03T19:12:24.231Z,8.80
2023-05-03T19:14:51.065Z,15.77
2023-05-03T19:17:17.940Z,11.37
2023-05-03T19:19:45.017Z,14.13
2023-05-03T19:22:11.922Z,9.27
2023-05-03T19:24:39.791Z,9.53
2023-05-03T19:27:06.514Z,9.03
2023-05-03T19:29:34.338Z,12.77
2023-05-03T19:32:01.448Z,10.40
2023-05-03T19:34:28.320Z,13.60
2023-05-03T19:36:55.222Z,9.83
2023-05-03T19:39:22.350Z,9.30
2023-05-03T19:41:50.319Z,13.50
2023-05-03T19:44:17.978Z,8.80
2023-05-03T19:46:44.780Z,7.33
2023-05-03T19:49:11.833Z,10.27
2023-05-03T19:51:38.863Z,11.10
2023-05-03T19:54:05.549Z,10.17
2023-05-03T19:56:32.291Z,11.53
2023-05-03T19:58:58.974Z,13.70
2023-05-03T20:01:25.800Z,9.50
2023-05-03T20:03:53.864Z,11.30
2023-05-03T20:06:22.144Z,11.50
2023-05-03T20:08:49.074Z,12.23
2023-05-03T20:11:15.730Z,10.37
2023-05-03T20:13:42.630Z,11.70
2023-05-03T20:16:10.095Z,14.17
2023-05-03T20:18:36.997Z,12.10
2023-05-03T20:21:03.995Z,14.97
2023-05-03T20:23:30.888Z,13.20
2023-05-03T20:25:57.552Z,13.87
2023-05-03T20:28:24.413Z,13.13
2023-05-03T20:30:51.330Z,12.83
2023-05-03T20:33:18.179Z,23.00
2023-05-03T20:35:44.927Z,13.37
2023-05-03T20:38:11.692Z,16.00
2023-05-03T20:40:38.790Z,16.23
2023-05-03T20:43:05.653Z,16.37
2023-05-03T20:45:32.533Z,10.57
2023-05-03T20:47:59.273Z,16.17
2023-05-03T20:50:26.059Z,12.47
2023-05-03T20:52:54.644Z,13.70
2023-05-03T20:55:21.405Z,12.43
2023-05-03T20:57:48.115Z,11.70
2023-05-03T21:00:18.024Z,11.53
2023-05-03T21:02:45.131Z,10.70
2023-05-03T21:05:11.950Z,13.73
2023-05-03T21:07:38.823Z,12.57
2023-05-03T21:10:07.450Z,15.40
2023-05-03T21:12:34.783Z,10.93
2023-05-03T21:15:01.764Z,17.00
2023-05-03T21:17:28.496Z,11.20
2023-05-03T21:19:55.794Z,11.00
2023-05-03T21:22:22.740Z,11.00
2023-05-03T21:24:50.068Z,12.80
2023-05-03T21:27:19.178Z,12.30
2023-05-03T21:29:46.272Z,11.97
2023-05-03T21:32:14.997Z,12.80
2023-05-03T21:34:41.688Z,13.13
2023-05-03T21:37:08.401Z,11.20
2023-05-03T21:39:36.882Z,13.10
2023-05-03T21:42:04.144Z,10.67
2023-05-03T21:44:31.454Z,11.90
2023-05-03T21:47:00.130Z,15.37
2023-05-03T21:49:27.336Z,13.33
2023-05-03T21:51:53.980Z,14.07
2023-05-03T21:54:20.832Z,15.47
2023-05-03T21:56:48.113Z,11.77
2023-05-03T21:59:15.348Z,16.00
2023-05-03T22:01:42.395Z,13.20
2023-05-03T22:04:09.251Z,13.20
2023-05-03T22:06:36.079Z,14.27
2023-05-03T22:09:02.797Z,14.70
2023-05-03T22:11:29.830Z,17.40
2023-05-03T22:14:07.512Z,13.43
2023-05-03T22:16:39.441Z,14.00
2023-05-03T22:19:06.150Z,18.07
2023-05-03T22:21:32.868Z,12.40
2023-05-03T22:23:59.678Z,14.03
2023-05-03T22:26:26.961Z,11.87
2023-05-03T22:28:54.748Z,14.63
2023-05-03T22:31:21.829Z,11.27
2023-05-03T22:33:49.043Z,15.90
2023-05-03T22:36:16.134Z,16.93
2023-05-03T22:38:43.463Z,13.57
2023-05-03T22:41:10.431Z,15.40
2023-05-03T22:43:37.178Z,14.63
2023-05-03T22:46:04.194Z,14.30
2023-05-03T22:48:32.562Z,15.10
2023-05-03T22:50:59.753Z,18.07
2023-05-03T22:53:26.612Z,14.67
2023-05-03T22:56:01.562Z,18.63
2023-05-03T22:58:28.619Z,13.53
2023-05-03T23:00:55.734Z,14.57
2023-05-03T23:03:23.252Z,15.77
2023-05-03T23:05:52.189Z,15.93
2023-05-03T23:08:19.923Z,14.10
2023-05-03T23:10:46.636Z,15.60
2023-05-03T23:13:13.550Z,13.80
2023-05-03T23:15:40.520Z,14.37
2023-05-03T23:18:07.449Z,14.30
2023-05-03T23:20:34.419Z,14.33
2023-05-03T23:23:01.182Z,16.03
2023-05-03T23:25:27.936Z,15.07
2023-05-03T23:27:54.627Z,15.37
2023-05-03T23:30:22.225Z,15.60
2023-05-03T23:32:49.707Z,15.13
2023-05-03T23:35:17.470Z,17.27
2023-05-03T23:37:44.151Z,16.13
2023-05-03T23:40:12.915Z,16.30
2023-05-03T23:42:41.301Z,14.47
2023-05-03T23:45:09.896Z,13.43
2023-05-03T23:47:36.999Z,14.73
2023-05-03T23:50:04.558Z,14.00
2023-05-03T23:52:31.578Z,13.80
2023-05-03T23:54:58.376Z,15.03
2023-05-03T23:57:25.273Z,14.40
2023-05-03T23:59:53.057Z,16.20
